Time,TemperatureF,DewpointF,PressureIn,WindDirection,WindDirectionDegrees,WindSpeedMPH,WindSpeedGustMPH,Humidity,HourlyPrecipIn,Conditions,Clouds,dailyrainin,SolarRadiationWatts/m^2,SoftwareType,DateUTC
2013-05-02 00:01:00,52.6,42.3,30.41,ENE,74,0.0,0.0,68,0.00,CLR,,0.00,0.0,WeatherDisplay:10.37,2013-05-02 04:01:00,
2013-05-02 00:02:00,52.5,42.6,30.41,ENE,74,0.0,0.0,69,0.00,CLR,,0.00,0.0,WeatherDisplay:10.37,2013-05-02 04:02:00,
2013-05-02 00:03:00,52.5,42.6,30.41,ENE,74,0.0,0.0,69,0.00,CLR,,0.00,0.0,WeatherDisplay:10.37,2013-05-02 04:03:00,
2013-05-02 00:08:00,52.3,42.4,30.41,ENE,74,0.0,0.0,69,0.00,CLR,,0.00,0.0,WeatherDisplay:10.37,2013-05-02 04:08:00,
2013-05-02 00:13:00,52.2,42.3,30.41,ENE,74,0.0,0.1,69,0.00,CLR,,0.00,0.0,WeatherDisplay:10.37,2013-05-02 04:13:00,
2013-05-02 00:18:00,52.0,42.5,30.41,ENE,74,0.0,0.0,70,0.00,CLR,,0.00,0.0,WeatherDisplay:10.37,2013-05-02 04:18:00,
2013-05-02 00:23:00,51.9,42.4,30.41,ENE,74,0.0,0.0,70,0.00,CLR,,0.00,0.0,WeatherDisplay:10.37,2013-05-02 04:23:00,
2013-05-02 00:28:00,51.8,42.3,30.41,ENE,74,0.0,0.0,70,0.00,CLR,,0.00,0.0,WeatherDisplay:10.37,2013-05-02 04:28:00,
2013-05-02 00:33:00,51.7,42.2,30.41,ENE,74,0.0,0.0,70,0.00,CLR,,0.00,0.0,WeatherDisplay:10.37,2013-05-02 04:33:00,
2013-05-02 00:38:00,51.7,42.2,30.40,ENE,74,0.0,0.0,70,0.00,CLR,,0.00,0.0,WeatherDisplay:10.37,2013-05-02 04:38:00,
2013-05-02 00:43:00,51.7,42.2,30.40,ENE,69,0.0,0.0,70,0.00,CLR,,0.00,0.0,WeatherDisplay:10.37,2013-05-02 04:43:00,
2013-05-02 00:48:00,51.8,42.3,30.40,ENE,69,1.2,1.2,70,0.00,CLR,,0.00,0.0,WeatherDisplay:10.37,2013-05-02 04:48:00,
2013-05-02 00:53:00,51.9,42.0,30.40,ENE,69,0.0,0.1,69,0.00,CLR,,0.00,0.0,WeatherDisplay:10.37,2013-05-02 04:53:00,
2013-05-02 00:58:00,51.9,42.0,30.40,ENE,69,1.2,0.0,69,0.00,CLR,,0.00,0.0,WeatherDisplay:10.37,2013-05-02 04:58:00,
2013-05-02 01:03:00,52.1,42.2,30.40,ENE,69,1.2,0.0,69,0.00,CLR,,0.00,0.0,WeatherDisplay:10.37,2013-05-02 05:03:00,
2013-05-02 01:08:00,52.1,42.2,30.40,ENE,69,1.2,1.2,69,0.00,CLR,,0.00,0.0,WeatherDisplay:10.37,2013-05-02 05:08:00,
2013-05-02 01:13:00,52.1,42.2,30.40,ENE,69,1.2,1.2,69,0.00,CLR,,0.00,0.0,WeatherDisplay:10.37,2013-05-02 05:13:00,
2013-05-02 01:18:00,51.9,42.4,30.39,ENE,69,1.2,0.0,70,0.00,CLR,,0.00,0.0,WeatherDisplay:10.37,2013-05-02 05:18:00,
2013-05-02 01:23:00,51.8,42.3,30.39,ENE,69,0.0,0.1,70,0.00,CLR,,0.00,0.0,WeatherDisplay:10.37,2013-05-02 05:23:00,
2013-05-02 01:28:00,51.6,42.1,30.39,ENE,69,1.2,1.2,70,0.00,CLR,,0.00,0.0,WeatherDisplay:10.37,2013-05-02 05:28:00,
2013-05-02 01:33:00,51.6,42.1,30.39,ENE,69,1.2,1.2,70,0.00,CLR,,0.00,0.0,WeatherDisplay:10.37,2013-05-02 05:33:00,
2013-05-02 01:38:00,51.5,42.0,30.39,ENE,69,1.2,1.2,70,0.00,CLR,,0.00,0.0,WeatherDisplay:10.37,2013-05-02 05:38:00,
2013-05-02 01:43:00,51.5,42.0,30.39,ENE,69,1.2,1.2,70,0.00,CLR,,0.00,0.0,WeatherDisplay:10.37,2013-05-02 05:43:00,
2013-05-02 01:48:00,51.5,42.0,30.39,ENE,69,1.2,1.2,70,0.00,CLR,,0.00,0.0,WeatherDisplay:10.37,2013-05-02 05:48:00,
2013-05-02 01:53:00,51.5,42.0,30.39,ENE,69,2.3,2.3,70,0.00,CLR,,0.00,0.0,WeatherDisplay:10.37,2013-05-02 05:53:00,
2013-05-02 01:58:00,51.4,42.3,30.40,ENE,69,0.0,0.1,71,0.00,CLR,,0.00,0.0,WeatherDisplay:10.37,2013-05-02 05:58:00,
2013-05-02 02:03:00,51.0,41.9,30.40,ENE,69,1.2,1.2,71,0.00,CLR,,0.00,0.0,WeatherDisplay:10.37,2013-05-02 06:03:00,
2013-05-02 02:08:00,50.8,42.1,30.39,ENE,69,0.0,0.0,72,0.00,CLR,,0.00,0.0,WeatherDisplay:10.37,2013-05-02 06:08:00,
2013-05-02 02:13:00,50.5,42.2,30.39,ENE,69,0.0,0.0,73,0.00,CLR,,0.00,0.0,WeatherDisplay:10.37,2013-05-02 06:13:00,
2013-05-02 02:18:00,50.4,42.4,30.39,ENE,69,1.0,1.0,74,0.00,CLR,,0.00,0.0,WeatherDisplay:10.37,2013-05-02 06:18:00,
2013-05-02 02:23:00,50.3,42.3,30.39,ENE,68,1.2,1.2,74,0.00,CLR,,0.00,0.0,WeatherDisplay:10.37,2013-05-02 06:23:00,
2013-05-02 02:28:00,50.2,42.2,30.39,ENE,60,1.2,1.2,74,0.00,CLR,,0.00,0.0,WeatherDisplay:10.37,2013-05-02 06:28:00,
2013-05-02 02:33:00,50.1,42.5,30.39,ENE,60,2.3,2.3,75,0.00,CLR,,0.00,0.0,WeatherDisplay:10.37,2013-05-02 06:33:00,
2013-05-02 02:38:00,50.1,42.5,30.39,ENE,58,1.2,1.2,75,0.00,CLR,,0.00,0.0,WeatherDisplay:10.37,2013-05-02 06:38:00,
2013-05-02 02:43:00,50.0,42.4,30.39,ENE,58,0.0,0.0,75,0.00,CLR,,0.00,0.0,WeatherDisplay:10.37,2013-05-02 06:43:00,
2013-05-02 02:48:00,49.9,42.3,30.39,ENE,58,1.2,0.0,75,0.00,CLR,,0.00,0.0,WeatherDisplay:10.37,2013-05-02 06:48:00,
2013-05-02 02:53:00,49.9,42.6,30.39,ENE,58,1.2,0.0,76,0.00,CLR,,0.00,0.0,WeatherDisplay:10.37,2013-05-02 06:53:00,
2013-05-02 02:58:00,49.8,42.5,30.39,ENE,58,0.0,0.0,76,0.00,CLR,,0.00,0.0,WeatherDisplay:10.37,2013-05-02 06:58:00,
2013-05-02 03:03:00,49.7,42.4,30.39,ENE,58,1.2,0.0,76,0.00,CLR,,0.00,0.0,WeatherDisplay:10.37,2013-05-02 07:03:00,
2013-05-02 03:08:00,49.6,42.3,30.39,ENE,58,0.0,0.0,76,0.00,CLR,,0.00,0.0,WeatherDisplay:10.37,2013-05-02 07:08:00,
2013-05-02 03:13:00,49.4,42.1,30.39,ENE,58,0.0,0.0,76,0.00,CLR,,0.00,0.0,WeatherDisplay:10.37,2013-05-02 07:13:00,
2013-05-02 03:18:00,49.0,41.8,30.39,ENE,58,0.0,0.0,76,0.00,CLR,,0.00,0.0,WeatherDisplay:10.37,2013-05-02 07:18:00,
2013-05-02 03:23:00,48.5,41.6,30.39,ENE,58,0.0,0.0,77,0.00,CLR,,0.00,0.0,WeatherDisplay:10.37,2013-05-02 07:23:00,
2013-05-02 03:28:00,48.0,41.5,30.39,ENE,58,0.0,0.0,78,0.00,CLR,,0.00,0.0,WeatherDisplay:10.37,2013-05-02 07:28:00,
2013-05-02 03:33:00,47.4,41.5,30.39,ENE,58,0.0,0.1,80,0.00,CLR,,0.00,0.0,WeatherDisplay:10.37,2013-05-02 07:33:00,
2013-05-02 03:38:00,46.9,40.7,30.39,ENE,58,0.0,0.0,79,0.00,CLR,,0.00,0.0,WeatherDisplay:10.37,2013-05-02 07:38:00,
2013-05-02 03:43:00,46.5,41.0,30.39,ENE,58,0.0,0.0,81,0.00,CLR,,0.00,0.0,WeatherDisplay:10.37,2013-05-02 07:43:00,
2013-05-02 03:48:00,46.2,41.0,30.39,ENE,58,0.0,0.0,82,0.00,CLR,,0.00,0.0,WeatherDisplay:10.37,2013-05-02 07:48:00,
2013-05-02 03:53:00,46.1,40.9,30.39,ENE,58,0.0,0.0,82,0.00,CLR,,0.00,0.0,WeatherDisplay:10.37,2013-05-02 07:53:00,
2013-05-02 03:58:00,46.0,41.1,30.39,ENE,58,0.0,0.0,83,0.00,CLR,,0.00,0.0,WeatherDisplay:10.37,2013-05-02 07:58:00,
2013-05-02 04:03:00,46.0,41.4,30.39,ENE,58,0.0,0.0,84,0.00,CLR,,0.00,0.0,WeatherDisplay:10.37,2013-05-02 08:03:00,
2013-05-02 04:08:00,46.1,41.5,30.39,ENE,58,0.0,0.0,84,0.00,CLR,,0.00,0.0,WeatherDisplay:10.37,2013-05-02 08:08:00,
2013-05-02 04:13:00,46.2,41.3,30.39,ENE,58,0.0,0.0,83,0.00,CLR,,0.00,0.0,WeatherDisplay:10.37,2013-05-02 08:13:00,
2013-05-02 04:18:00,46.1,40.9,30.39,ENE,58,0.0,0.0,82,0.00,CLR,,0.00,0.0,WeatherDisplay:10.37,2013-05-02 08:18:00,
2013-05-02 04:23:00,45.7,40.8,30.39,ENE,58,0.0,0.0,83,0.00,CLR,,0.00,0.0,WeatherDisplay:10.37,2013-05-02 08:23:00,
2013-05-02 04:28:00,45.2,40.3,30.39,ENE,58,0.0,0.0,83,0.00,CLR,,0.00,0.0,WeatherDisplay:10.37,2013-05-02 08:28:00,
2013-05-02 04:33:00,44.8,40.6,30.38,ENE,58,0.0,0.0,85,0.00,CLR,,0.00,0.0,WeatherDisplay:10.37,2013-05-02 08:33:00,
2013-05-02 04:38:00,44.5,40.6,30.38,ENE,58,0.0,0.0,86,0.00,CLR,,0.00,0.0,WeatherDisplay:10.37,2013-05-02 08:38:00,
2013-05-02 04:43:00,44.5,40.6,30.38,ENE,58,0.0,0.0,86,0.00,CLR,,0.00,0.0,WeatherDisplay:10.37,2013-05-02 08:43:00,
2013-05-02 04:48:00,44.3,40.7,30.39,ENE,58,0.0,0.0,87,0.00,CLR,,0.00,0.0,WeatherDisplay:10.37,2013-05-02 08:48:00,
2013-05-02 04:53:00,44.1,40.8,30.39,ENE,58,0.0,0.0,88,0.00,CLR,,0.00,0.0,WeatherDisplay:10.37,2013-05-02 08:53:00,
2013-05-02 04:58:00,44.0,40.7,30.38,ENE,58,0.0,0.0,88,0.00,CLR,,0.00,0.0,WeatherDisplay:10.37,2013-05-02 08:58:00,
2013-05-02 05:03:00,43.8,40.2,30.38,ENE,58,0.0,0.0,87,0.00,CLR,,0.00,0.0,WeatherDisplay:10.37,2013-05-02 09:03:00,
2013-05-02 05:08:00,43.6,40.0,30.39,ENE,58,0.0,0.0,87,0.00,CLR,,0.00,0.0,WeatherDisplay:10.37,2013-05-02 09:08:00,
2013-05-02 05:13:00,43.4,40.1,30.38,ENE,58,0.0,0.0,88,0.00,CLR,,0.00,0.0,WeatherDisplay:10.37,2013-05-02 09:13:00,
2013-05-02 05:18:00,43.2,39.6,30.38,ENE,58,0.0,0.0,87,0.00,CLR,,0.00,0.0,WeatherDisplay:10.37,2013-05-02 09:18:00,
2013-05-02 05:23:00,42.9,39.9,30.38,ENE,58,0.0,0.0,89,0.00,CLR,,0.00,0.0,WeatherDisplay:10.37,2013-05-02 09:23:00,
2013-05-02 05:28:00,43.0,40.0,30.39,ENE,58,0.0,0.0,89,0.00,CLR,,0.00,0.0,WeatherDisplay:10.37,2013-05-02 09:28:00,
2013-05-02 05:33:00,43.2,40.5,30.39,ENE,58,0.0,0.0,90,0.00,CLR,,0.00,0.0,WeatherDisplay:10.37,2013-05-02 09:33:00,
2013-05-02 05:38:00,43.4,40.7,30.39,ENE,58,0.0,0.0,90,0.00,CLR,,0.00,0.0,WeatherDisplay:10.37,2013-05-02 09:38:00,
2013-05-02 05:43:00,43.6,40.3,30.39,ENE,58,0.0,0.0,88,0.00,CLR,,0.00,0.0,WeatherDisplay:10.37,2013-05-02 09:43:00,
2013-05-02 05:48:00,43.6,40.3,30.39,ENE,58,1.2,1.2,88,0.00,CLR,,0.00,0.0,WeatherDisplay:10.37,2013-05-02 09:48:00,
2013-05-02 05:53:00,43.3,40.0,30.39,ENE,58,1.2,1.2,88,0.00,CLR,,0.00,0.0,WeatherDisplay:10.37,2013-05-02 09:53:00,
2013-05-02 05:58:00,42.9,39.6,30.39,ENE,58,0.0,0.0,88,0.00,CLR,,0.00,0.0,WeatherDisplay:10.37,2013-05-02 09:58:00,
2013-05-02 06:03:00,42.6,39.6,30.39,ENE,58,1.0,0.0,89,0.00,CLR,,0.00,5.0,WeatherDisplay:10.37,2013-05-02 10:03:00,
2013-05-02 06:08:00,42.4,39.4,30.39,ENE,58,0.0,0.0,89,0.00,CLR,,0.00,7.0,WeatherDisplay:10.37,2013-05-02 10:08:00,
2013-05-02 06:13:00,42.2,39.5,30.39,ENE,58,0.0,0.0,90,0.00,CLR,,0.00,11.0,WeatherDisplay:10.37,2013-05-02 10:13:00,
2013-05-02 06:18:00,42.1,39.4,30.39,ENE,58,0.0,0.0,90,0.00,CLR,,0.00,14.0,WeatherDisplay:10.37,2013-05-02 10:18:00,
2013-05-02 06:23:00,42.1,39.7,30.39,ENE,58,0.0,0.0,91,0.00,CLR,,0.00,18.0,WeatherDisplay:10.37,2013-05-02 10:23:00,
2013-05-02 06:28:00,42.1,39.7,30.40,ENE,58,0.0,0.0,91,0.00,CLR,,0.00,21.0,WeatherDisplay:10.37,2013-05-02 10:28:00,
2013-05-02 06:33:00,42.1,39.9,30.40,ENE,58,0.0,0.0,92,0.00,CLR,,0.00,23.0,WeatherDisplay:10.37,2013-05-02 10:33:00,
2013-05-02 06:38:00,42.2,39.8,30.40,ENE,58,0.0,0.0,91,0.00,CLR,,0.00,26.0,WeatherDisplay:10.37,2013-05-02 10:38:00,
2013-05-02 06:43:00,42.3,40.1,30.40,ENE,58,0.0,0.0,92,0.00,CLR,,0.00,28.0,WeatherDisplay:10.37,2013-05-02 10:43:00,
2013-05-02 06:48:00,42.9,40.7,30.40,ENE,58,0.0,0.0,92,0.00,CLR,,0.00,102.0,WeatherDisplay:10.37,2013-05-02 10:48:00,
2013-05-02 06:53:00,44.3,41.8,30.40,ENE,58,0.0,0.0,91,0.00,CLR,,0.00,116.0,WeatherDisplay:10.37,2013-05-02 10:53:00,
2013-05-02 06:58:00,46.0,42.6,30.40,ENE,58,1.2,1.2,88,0.00,CLR,,0.00,132.0,WeatherDisplay:10.37,2013-05-02 10:58:00,
2013-05-02 07:03:00,47.4,43.1,30.40,ENE,58,1.2,1.2,85,0.00,CLR,,0.00,144.0,WeatherDisplay:10.37,2013-05-02 11:03:00,
2013-05-02 07:08:00,48.2,43.0,30.40,ENE,58,1.2,1.2,82,0.00,CLR,,0.00,158.0,WeatherDisplay:10.37,2013-05-02 11:08:00,
2013-05-02 07:13:00,48.7,43.1,30.41,ENE,58,0.0,0.0,81,0.00,CLR,,0.00,171.0,WeatherDisplay:10.37,2013-05-02 11:13:00,
2013-05-02 07:18:00,49.1,43.2,30.41,ENE,58,1.2,0.0,80,0.00,CLR,,0.00,181.0,WeatherDisplay:10.37,2013-05-02 11:18:00,
2013-05-02 07:23:00,49.7,43.5,30.41,ENE,58,0.0,0.0,79,0.00,CLR,,0.00,192.0,WeatherDisplay:10.37,2013-05-02 11:23:00,
2013-05-02 07:28:00,50.5,44.2,30.41,ENE,58,1.2,0.0,79,0.00,CLR,,0.00,206.0,WeatherDisplay:10.37,2013-05-02 11:28:00,
2013-05-02 07:33:00,51.2,43.9,30.41,ENE,57,2.3,2.3,76,0.00,CLR,,0.00,223.0,WeatherDisplay:10.37,2013-05-02 11:33:00,
2013-05-02 07:38:00,51.5,43.8,30.41,NE,49,2.3,2.3,75,0.00,CLR,,0.00,241.0,WeatherDisplay:10.37,2013-05-02 11:38:00,
2013-05-02 07:43:00,51.8,44.1,30.41,NE,49,1.2,1.2,75,0.00,CLR,,0.00,258.0,WeatherDisplay:10.37,2013-05-02 11:43:00,
2013-05-02 07:48:00,52.0,44.0,30.41,NE,49,1.2,1.2,74,0.00,CLR,,0.00,276.0,WeatherDisplay:10.37,2013-05-02 11:48:00,
2013-05-02 07:53:00,52.0,44.0,30.41,NE,47,2.3,2.3,74,0.00,CLR,,0.00,294.0,WeatherDisplay:10.37,2013-05-02 11:53:00,
2013-05-02 07:58:00,52.1,44.1,30.41,NE,38,2.3,2.3,74,0.00,CLR,,0.00,309.0,WeatherDisplay:10.37,2013-05-02 11:58:00,
2013-05-02 08:03:00,52.4,43.6,30.41,NE,34,2.3,2.3,72,0.00,CLR,,0.00,327.0,WeatherDisplay:10.37,2013-05-02 12:03:00,
2013-05-02 08:08:00,52.6,43.8,30.41,NE,34,2.3,2.3,72,0.00,CLR,,0.00,343.0,WeatherDisplay:10.37,2013-05-02 12:08:00,
2013-05-02 08:13:00,53.0,44.2,30.41,NE,34,1.2,1.2,72,0.00,CLR,,0.00,360.0,WeatherDisplay:10.37,2013-05-02 12:13:00,
2013-05-02 08:18:00,53.6,44.4,30.41,NE,34,1.2,1.2,71,0.00,CLR,,0.00,380.0,WeatherDisplay:10.37,2013-05-02 12:18:00,
2013-05-02 08:23:00,54.0,44.4,30.42,NE,41,1.2,1.2,70,0.00,CLR,,0.00,397.0,WeatherDisplay:10.37,2013-05-02 12:23:00,
2013-05-02 08:28:00,54.3,45.1,30.41,NE,41,0.0,0.0,71,0.00,CLR,,0.00,413.0,WeatherDisplay:10.37,2013-05-02 12:28:00,
2013-05-02 08:33:00,54.7,44.3,30.41,NE,41,1.2,1.2,68,0.00,CLR,,0.00,429.0,WeatherDisplay:10.37,2013-05-02 12:33:00,
2013-05-02 08:38:00,55.1,44.7,30.41,NE,41,1.2,1.2,68,0.00,CLR,,0.00,445.0,WeatherDisplay:10.37,2013-05-02 12:38:00,
2013-05-02 08:43:00,55.4,45.0,30.41,ENE,57,1.2,0.0,68,0.00,CLR,,0.00,462.0,WeatherDisplay:10.37,2013-05-02 12:43:00,
2013-05-02 08:48:00,56.0,46.0,30.42,SE,128,3.5,3.5,69,0.00,CLR,,0.00,480.0,WeatherDisplay:10.37,2013-05-02 12:48:00,
2013-05-02 08:53:00,56.7,46.6,30.42,SE,128,2.3,2.3,69,0.00,CLR,,0.00,496.0,WeatherDisplay:10.37,2013-05-02 12:53:00,
2013-05-02 08:58:00,57.0,46.5,30.42,SE,128,3.5,3.5,68,0.00,CLR,,0.00,513.0,WeatherDisplay:10.37,2013-05-02 12:58:00,
2013-05-02 09:03:00,57.2,46.3,30.42,SE,128,1.2,1.2,67,0.00,CLR,,0.00,527.0,WeatherDisplay:10.37,2013-05-02 13:03:00,
2013-05-02 09:08:00,56.9,46.1,30.42,SE,128,3.5,3.5,67,0.00,CLR,,0.00,541.0,WeatherDisplay:10.37,2013-05-02 13:08:00,
2013-05-02 09:13:00,56.8,46.3,30.42,SE,128,2.0,2.0,68,0.00,CLR,,0.00,557.0,WeatherDisplay:10.37,2013-05-02 13:13:00,
2013-05-02 09:18:00,57.5,45.4,30.42,ESE,113,3.5,3.5,64,0.00,CLR,,0.00,575.0,WeatherDisplay:10.37,2013-05-02 13:18:00,
2013-05-02 09:23:00,57.6,45.9,30.42,East,101,3.5,3.5,65,0.00,CLR,,0.00,589.0,WeatherDisplay:10.37,2013-05-02 13:23:00,
2013-05-02 09:28:00,56.9,46.8,30.42,East,101,2.3,2.3,69,0.00,CLR,,0.00,605.0,WeatherDisplay:10.37,2013-05-02 13:28:00,
2013-05-02 09:33:00,56.9,45.3,30.42,East,100,3.5,3.5,65,0.00,CLR,,0.00,621.0,WeatherDisplay:10.37,2013-05-02 13:33:00,
2013-05-02 09:38:00,57.9,47.8,30.42,East,100,3.5,3.5,69,0.00,CLR,,0.00,635.0,WeatherDisplay:10.37,2013-05-02 13:38:00,
2013-05-02 09:43:00,57.7,48.4,30.42,NW,322,3.5,3.5,71,0.00,CLR,,0.00,650.0,WeatherDisplay:10.37,2013-05-02 13:43:00,
2013-05-02 09:48:00,57.9,46.2,30.42,NNW,328,1.2,1.2,65,0.00,CLR,,0.00,661.0,WeatherDisplay:10.37,2013-05-02 13:48:00,
2013-05-02 09:53:00,58.1,46.8,30.42,NE,55,2.3,2.3,66,0.00,CLR,,0.00,673.0,WeatherDisplay:10.37,2013-05-02 13:53:00,
2013-05-02 09:58:00,58.1,46.8,30.42,WNW,300,4.6,4.6,66,0.00,CLR,,0.00,686.0,WeatherDisplay:10.37,2013-05-02 13:58:00,
2013-05-02 10:03:00,58.9,45.9,30.42,WNW,294,3.5,3.5,62,0.00,CLR,,0.00,700.0,WeatherDisplay:10.37,2013-05-02 14:03:00,
2013-05-02 10:08:00,57.5,45.0,30.42,WNW,298,1.2,1.2,63,0.00,CLR,,0.00,715.0,WeatherDisplay:10.37,2013-05-02 14:08:00,
2013-05-02 10:13:00,57.9,47.0,30.42,SSW,205,3.5,3.5,67,0.00,CLR,,0.00,726.0,WeatherDisplay:10.37,2013-05-02 14:13:00,
2013-05-02 10:18:00,57.9,47.4,30.42,SSW,213,2.3,2.3,68,0.00,CLR,,0.00,738.0,WeatherDisplay:10.37,2013-05-02 14:18:00,
2013-05-02 10:23:00,58.9,47.2,30.42,WSW,244,2.3,2.3,65,0.00,CLR,,0.00,747.0,WeatherDisplay:10.37,2013-05-02 14:23:00,
2013-05-02 10:28:00,59.7,47.5,30.42,South,175,3.5,3.5,64,0.00,CLR,,0.00,759.0,WeatherDisplay:10.37,2013-05-02 14:28:00,
2013-05-02 10:33:00,59.9,47.3,30.43,SSW,209,1.2,1.2,63,0.00,CLR,,0.00,773.0,WeatherDisplay:10.37,2013-05-02 14:33:00,
2013-05-02 10:38:00,60.4,48.2,30.42,WNW,295,2.3,2.3,64,0.00,CLR,,0.00,789.0,WeatherDisplay:10.37,2013-05-02 14:38:00,
2013-05-02 10:44:00,61.1,50.5,30.43,SW,223,2.3,2.3,68,0.00,CLR,,0.00,798.0,WeatherDisplay:10.37,2013-05-02 14:44:00,
2013-05-02 10:49:00,60.3,47.6,30.43,West,268,4.6,4.6,63,0.00,CLR,,0.00,807.0,WeatherDisplay:10.37,2013-05-02 14:49:00,
2013-05-02 10:54:00,60.1,47.5,30.42,WNW,295,4.6,4.6,63,0.00,CLR,,0.00,819.0,WeatherDisplay:10.37,2013-05-02 14:54:00,
2013-05-02 10:59:00,60.4,48.6,30.42,WSW,245,2.3,2.3,65,0.00,CLR,,0.00,824.0,WeatherDisplay:10.37,2013-05-02 14:59:00,
2013-05-02 11:04:00,61.5,48.8,30.42,West,278,1.2,1.2,63,0.00,CLR,,0.00,838.0,WeatherDisplay:10.37,2013-05-02 15:04:00,
2013-05-02 11:09:00,62.5,48.4,30.42,SW,223,2.3,2.3,60,0.00,CLR,,0.00,853.0,WeatherDisplay:10.37,2013-05-02 15:09:00,
2013-05-02 11:14:00,62.8,46.4,30.42,SE,136,2.3,2.3,55,0.00,CLR,,0.00,860.0,WeatherDisplay:10.37,2013-05-02 15:14:00,
2013-05-02 11:19:00,62.9,45.5,30.42,SE,136,3.5,3.5,53,0.00,CLR,,0.00,870.0,WeatherDisplay:10.37,2013-05-02 15:19:00,
2013-05-02 11:24:00,62.9,47.9,30.42,SE,132,3.5,3.5,58,0.00,CLR,,0.00,877.0,WeatherDisplay:10.37,2013-05-02 15:24:00,
2013-05-02 11:29:00,62.9,47.9,30.42,ESE,105,3.5,3.5,58,0.00,CLR,,0.00,888.0,WeatherDisplay:10.37,2013-05-02 15:29:00,
2013-05-02 11:34:00,62.9,47.9,30.42,SSW,196,5.0,5.0,58,0.00,CLR,,0.00,888.0,WeatherDisplay:10.37,2013-05-02 15:34:00,
2013-05-02 11:39:00,63.1,46.7,30.42,South,183,2.3,2.3,55,0.00,CLR,,0.00,904.0,WeatherDisplay:10.37,2013-05-02 15:39:00,
2013-05-02 11:44:00,63.6,49.5,30.42,SE,131,3.5,3.5,60,0.00,CLR,,0.00,905.0,WeatherDisplay:10.37,2013-05-02 15:44:00,
2013-05-02 11:49:00,63.1,46.2,30.42,SSW,202,2.3,2.3,54,0.00,CLR,,0.00,912.0,WeatherDisplay:10.37,2013-05-02 15:49:00,
2013-05-02 11:54:00,63.7,46.7,30.42,ESE,121,6.9,6.9,54,0.00,CLR,,0.00,914.0,WeatherDisplay:10.37,2013-05-02 15:54:00,
2013-05-02 11:59:00,64.1,46.1,30.41,SE,145,2.3,2.3,52,0.00,CLR,,0.00,919.0,WeatherDisplay:10.37,2013-05-02 15:59:00,
2013-05-02 12:04:00,63.9,46.9,30.41,SSE,163,4.6,4.6,54,0.00,CLR,,0.00,925.0,WeatherDisplay:10.37,2013-05-02 16:04:00,
2013-05-02 12:09:00,64.2,47.2,30.41,SE,126,3.5,3.5,54,0.00,CLR,,0.00,932.0,WeatherDisplay:10.37,2013-05-02 16:09:00,
2013-05-02 12:14:00,64.9,47.9,30.41,South,175,3.5,3.5,54,0.00,CLR,,0.00,932.0,WeatherDisplay:10.37,2013-05-02 16:14:00,
2013-05-02 12:19:00,65.1,47.0,30.41,ESE,121,3.5,3.5,52,0.00,CLR,,0.00,937.0,WeatherDisplay:10.37,2013-05-02 16:19:00,
2013-05-02 12:24:00,66.2,47.5,30.40,ESE,107,1.2,1.2,51,0.00,CLR,,0.00,937.0,WeatherDisplay:10.37,2013-05-02 16:24:00,
2013-05-02 12:29:00,65.7,51.0,30.40,NW,317,3.5,3.5,59,0.00,CLR,,0.00,939.0,WeatherDisplay:10.37,2013-05-02 16:29:00,
2013-05-02 12:34:00,66.3,45.5,30.40,NE,42,3.5,3.5,47,0.00,CLR,,0.00,949.0,WeatherDisplay:10.37,2013-05-02 16:34:00,
2013-05-02 12:39:00,66.0,44.6,30.40,West,264,2.0,2.1,46,0.00,CLR,,0.00,949.0,WeatherDisplay:10.37,2013-05-02 16:39:00,
2013-05-02 12:44:00,66.9,47.1,30.40,ENE,73,3.0,3.0,49,0.00,CLR,,0.00,944.0,WeatherDisplay:10.37,2013-05-02 16:44:00,
2013-05-02 12:49:00,67.0,46.1,30.40,NE,34,3.5,3.5,47,0.00,CLR,,0.00,953.0,WeatherDisplay:10.37,2013-05-02 16:49:00,
2013-05-02 12:54:00,67.6,47.8,30.39,NNE,32,3.5,3.5,49,0.00,CLR,,0.00,951.0,WeatherDisplay:10.37,2013-05-02 16:54:00,
2013-05-02 12:59:00,68.0,47.6,30.39,ENE,65,2.3,2.3,48,0.00,CLR,,0.00,953.0,WeatherDisplay:10.37,2013-05-02 16:59:00,
2013-05-02 13:04:00,68.0,45.9,30.39,ENE,57,1.2,1.2,45,0.00,CLR,,0.00,958.0,WeatherDisplay:10.37,2013-05-02 17:04:00,
2013-05-02 13:09:00,67.6,46.1,30.39,ESE,113,4.0,4.0,46,0.00,CLR,,0.00,951.0,WeatherDisplay:10.37,2013-05-02 17:09:00,
2013-05-02 13:14:00,67.6,45.5,30.39,NE,34,2.3,2.3,45,0.00,CLR,,0.00,949.0,WeatherDisplay:10.37,2013-05-02 17:14:00,
2013-05-02 13:19:00,68.3,47.3,30.39,NE,41,2.3,2.3,47,0.00,CLR,,0.00,947.0,WeatherDisplay:10.37,2013-05-02 17:19:00,
2013-05-02 13:24:00,68.6,45.2,30.39,NNE,20,2.3,2.3,43,0.00,CLR,,0.00,951.0,WeatherDisplay:10.37,2013-05-02 17:24:00,
2013-05-02 13:29:00,68.0,45.3,30.39,East,94,2.0,2.0,44,0.00,CLR,,0.00,946.0,WeatherDisplay:10.37,2013-05-02 17:29:00,
2013-05-02 13:34:00,68.2,48.8,30.39,East,99,2.0,2.0,50,0.00,CLR,,0.00,944.0,WeatherDisplay:10.37,2013-05-02 17:34:00,
2013-05-02 13:39:00,68.7,45.3,30.39,ENE,64,3.5,3.5,43,0.00,CLR,,0.00,940.0,WeatherDisplay:10.37,2013-05-02 17:39:00,
2013-05-02 13:44:00,69.1,47.4,30.39,North,5,3.5,3.5,46,0.00,CLR,,0.00,939.0,WeatherDisplay:10.37,2013-05-02 17:44:00,
2013-05-02 13:49:00,68.8,47.2,30.39,ENE,62,3.5,3.5,46,0.00,CLR,,0.00,935.0,WeatherDisplay:10.37,2013-05-02 17:49:00,
2013-05-02 13:54:00,68.0,45.9,30.39,NE,49,4.6,4.6,45,0.00,CLR,,0.00,928.0,WeatherDisplay:10.37,2013-05-02 17:54:00,
2013-05-02 13:59:00,68.9,44.9,30.39,East,82,3.5,3.5,42,0.00,CLR,,0.00,926.0,WeatherDisplay:10.37,2013-05-02 17:59:00,
2013-05-02 14:04:00,69.8,49.2,30.39,ESE,104,3.5,3.5,48,0.00,CLR,,0.00,921.0,WeatherDisplay:10.37,2013-05-02 18:04:00,
2013-05-02 14:09:00,69.7,45.6,30.39,NNE,26,6.9,6.9,42,0.00,CLR,,0.00,912.0,WeatherDisplay:10.37,2013-05-02 18:09:00,
2013-05-02 14:14:00,69.8,46.9,30.39,North,5,4.6,4.6,44,0.00,CLR,,0.00,911.0,WeatherDisplay:10.37,2013-05-02 18:14:00,
2013-05-02 14:19:00,70.3,46.1,30.38,NNE,15,2.3,2.3,42,0.00,CLR,,0.00,904.0,WeatherDisplay:10.37,2013-05-02 18:19:00,
2013-05-02 14:24:00,70.1,47.2,30.38,East,101,2.3,2.3,44,0.00,CLR,,0.00,896.0,WeatherDisplay:10.37,2013-05-02 18:24:00,
2013-05-02 14:29:00,70.7,46.5,30.38,NNE,30,2.0,2.0,42,0.00,CLR,,0.00,893.0,WeatherDisplay:10.37,2013-05-02 18:29:00,
2013-05-02 14:34:00,70.2,46.6,30.38,ESE,103,3.5,3.5,43,0.00,CLR,,0.00,884.0,WeatherDisplay:10.37,2013-05-02 18:34:00,
2013-05-02 14:39:00,70.8,46.6,30.37,ENE,67,2.0,2.0,42,0.00,CLR,,0.00,875.0,WeatherDisplay:10.37,2013-05-02 18:39:00,
2013-05-02 14:44:00,70.8,45.3,30.37,East,92,3.5,3.5,40,0.00,CLR,,0.00,868.0,WeatherDisplay:10.37,2013-05-02 18:44:00,
2013-05-02 14:49:00,70.6,46.4,30.37,NE,49,2.3,2.3,42,0.00,CLR,,0.00,858.0,WeatherDisplay:10.37,2013-05-02 18:49:00,
2013-05-02 14:54:00,70.2,46.0,30.37,NE,49,1.2,1.2,42,0.00,CLR,,0.00,854.0,WeatherDisplay:10.37,2013-05-02 18:54:00,
2013-05-02 14:59:00,70.6,48.2,30.37,ESE,115,3.5,3.5,45,0.00,CLR,,0.00,846.0,WeatherDisplay:10.37,2013-05-02 18:59:00,
2013-05-02 15:04:00,71.2,46.3,30.37,ESE,112,2.3,2.3,41,0.00,CLR,,0.00,837.0,WeatherDisplay:10.37,2013-05-02 19:04:00,
2013-05-02 15:09:00,71.3,46.4,30.37,East,90,2.3,2.3,41,0.00,CLR,,0.00,821.0,WeatherDisplay:10.37,2013-05-02 19:09:00,
2013-05-02 15:14:00,70.8,45.3,30.36,East,92,1.2,1.2,40,0.00,CLR,,0.00,814.0,WeatherDisplay:10.37,2013-05-02 19:14:00,
2013-05-02 15:19:00,71.2,46.3,30.36,East,93,2.3,2.3,41,0.00,CLR,,0.00,796.0,WeatherDisplay:10.37,2013-05-02 19:19:00,
2013-05-02 15:24:00,71.5,46.6,30.36,NNE,24,2.3,2.3,41,0.00,CLR,,0.00,791.0,WeatherDisplay:10.37,2013-05-02 19:24:00,
2013-05-02 15:29:00,71.8,48.1,30.36,SSE,155,4.6,4.6,43,0.00,CLR,,0.00,780.0,WeatherDisplay:10.37,2013-05-02 19:29:00,
2013-05-02 15:34:00,71.7,46.7,30.36,NE,54,3.5,3.5,41,0.00,CLR,,0.00,770.0,WeatherDisplay:10.37,2013-05-02 19:34:00,
2013-05-02 15:39:00,72.1,46.4,30.35,East,88,5.0,5.0,40,0.00,CLR,,0.00,763.0,WeatherDisplay:10.37,2013-05-02 19:39:00,
2013-05-02 15:44:00,72.6,46.2,30.36,East,86,3.5,3.5,39,0.00,CLR,,0.00,751.0,WeatherDisplay:10.37,2013-05-02 19:44:00,
2013-05-02 15:49:00,72.0,46.3,30.35,ESE,107,3.0,3.0,40,0.00,CLR,,0.00,740.0,WeatherDisplay:10.37,2013-05-02 19:49:00,
2013-05-02 15:54:00,72.1,47.1,30.35,ESE,103,2.3,2.3,41,0.00,CLR,,0.00,722.0,WeatherDisplay:10.37,2013-05-02 19:54:00,
2013-05-02 15:59:00,72.2,45.9,30.35,East,90,2.3,2.3,39,0.00,CLR,,0.00,710.0,WeatherDisplay:10.37,2013-05-02 19:59:00,
2013-05-02 16:04:00,72.0,46.3,30.35,ESE,107,8.1,8.1,40,0.00,CLR,,0.00,698.0,WeatherDisplay:10.37,2013-05-02 20:04:00,
2013-05-02 16:09:00,72.2,44.5,30.34,ESE,113,4.6,4.6,37,0.00,CLR,,0.00,684.0,WeatherDisplay:10.37,2013-05-02 20:09:00,
2013-05-02 16:14:00,72.4,44.6,30.34,East,80,3.5,3.5,37,0.00,CLR,,0.00,671.0,WeatherDisplay:10.37,2013-05-02 20:14:00,
2013-05-02 16:19:00,72.1,45.8,30.34,East,98,6.9,6.9,39,0.00,CLR,,0.00,654.0,WeatherDisplay:10.37,2013-05-02 20:19:00,
2013-05-02 16:24:00,72.4,44.6,30.34,East,83,2.3,2.3,37,0.00,CLR,,0.00,638.0,WeatherDisplay:10.37,2013-05-02 20:24:00,
2013-05-02 16:29:00,72.5,44.7,30.34,NE,51,2.0,2.0,37,0.00,CLR,,0.00,628.0,WeatherDisplay:10.37,2013-05-02 20:29:00,
2013-05-02 16:34:00,72.7,45.6,30.34,NE,49,3.5,3.5,38,0.00,CLR,,0.00,608.0,WeatherDisplay:10.37,2013-05-02 20:34:00,
2013-05-02 16:39:00,72.2,45.2,30.34,NE,55,2.3,2.3,38,0.00,CLR,,0.00,596.0,WeatherDisplay:10.37,2013-05-02 20:39:00,
2013-05-02 16:44:00,72.3,46.6,30.34,East,95,4.6,4.6,40,0.00,CLR,,0.00,580.0,WeatherDisplay:10.37,2013-05-02 20:44:00,
2013-05-02 16:49:00,72.4,45.4,30.34,East,96,3.0,3.0,38,0.00,CLR,,0.00,566.0,WeatherDisplay:10.37,2013-05-02 20:49:00,
2013-05-02 16:54:00,71.6,43.2,30.34,ESE,107,4.6,4.6,36,0.00,CLR,,0.00,550.0,WeatherDisplay:10.37,2013-05-02 20:54:00,
2013-05-02 16:59:00,71.0,42.7,30.34,East,94,8.1,8.1,36,0.00,CLR,,0.00,536.0,WeatherDisplay:10.37,2013-05-02 20:59:00,
2013-05-02 17:04:00,71.3,43.0,30.33,East,85,3.5,3.5,36,0.00,CLR,,0.00,524.0,WeatherDisplay:10.37,2013-05-02 21:04:00,
2013-05-02 17:09:00,71.4,44.5,30.33,East,99,3.5,3.5,38,0.00,CLR,,0.00,506.0,WeatherDisplay:10.37,2013-05-02 21:09:00,
2013-05-02 17:14:00,71.7,44.0,30.33,NE,44,6.9,6.9,37,0.00,CLR,,0.00,490.0,WeatherDisplay:10.37,2013-05-02 21:14:00,
2013-05-02 17:19:00,71.5,43.1,30.33,ENE,76,2.3,2.3,36,0.00,CLR,,0.00,475.0,WeatherDisplay:10.37,2013-05-02 21:19:00,
2013-05-02 17:24:00,71.5,43.1,30.33,East,94,2.3,2.3,36,0.00,CLR,,0.00,457.0,WeatherDisplay:10.37,2013-05-02 21:24:00,
2013-05-02 17:29:00,71.6,43.9,30.33,East,89,4.6,4.6,37,0.00,CLR,,0.00,441.0,WeatherDisplay:10.37,2013-05-02 21:29:00,
2013-05-02 17:34:00,71.1,42.0,30.33,ESE,104,3.5,3.5,35,0.00,CLR,,0.00,425.0,WeatherDisplay:10.37,2013-05-02 21:34:00,
2013-05-02 17:39:00,71.4,42.3,30.33,ENE,69,2.3,2.3,35,0.00,CLR,,0.00,410.0,WeatherDisplay:10.37,2013-05-02 21:39:00,
2013-05-02 17:44:00,71.7,44.0,30.33,NNE,30,3.5,3.5,37,0.00,CLR,,0.00,392.0,WeatherDisplay:10.37,2013-05-02 21:44:00,
2013-05-02 17:49:00,71.5,43.1,30.33,East,98,4.6,4.6,36,0.00,CLR,,0.00,376.0,WeatherDisplay:10.37,2013-05-02 21:49:00,
2013-05-02 17:54:00,71.2,43.6,30.33,East,94,2.3,2.3,37,0.00,CLR,,0.00,359.0,WeatherDisplay:10.37,2013-05-02 21:54:00,
2013-05-02 17:59:00,71.5,42.4,30.33,ESE,119,4.6,4.6,35,0.00,CLR,,0.00,339.0,WeatherDisplay:10.37,2013-05-02 21:59:00,
2013-05-02 18:04:00,71.2,41.4,30.33,East,92,3.5,3.5,34,0.00,CLR,,0.00,320.0,WeatherDisplay:10.37,2013-05-02 22:04:00,
2013-05-02 18:09:00,70.7,43.1,30.33,ESE,118,3.5,3.5,37,0.00,CLR,,0.00,302.0,WeatherDisplay:10.37,2013-05-02 22:09:00,
2013-05-02 18:14:00,70.6,43.7,30.33,ESE,107,3.5,3.5,38,0.00,CLR,,0.00,283.0,WeatherDisplay:10.37,2013-05-02 22:14:00,
2013-05-02 18:19:00,70.6,43.7,30.32,ESE,115,3.5,3.5,38,0.00,CLR,,0.00,262.0,WeatherDisplay:10.37,2013-05-02 22:19:00,
2013-05-02 18:24:00,70.3,46.1,30.32,ESE,121,4.0,4.0,42,0.00,CLR,,0.00,251.0,WeatherDisplay:10.37,2013-05-02 22:24:00,
2013-05-02 18:29:00,70.2,44.1,30.32,ESE,117,3.5,3.5,39,0.00,CLR,,0.00,234.0,WeatherDisplay:10.37,2013-05-02 22:29:00,
2013-05-02 18:34:00,70.1,45.9,30.31,SE,142,2.3,2.3,42,0.00,CLR,,0.00,218.0,WeatherDisplay:10.37,2013-05-02 22:34:00,
2013-05-02 18:39:00,69.7,46.2,30.31,SE,140,2.3,2.3,43,0.00,CLR,,0.00,199.0,WeatherDisplay:10.37,2013-05-02 22:39:00,
2013-05-02 18:44:00,69.5,46.0,30.31,SE,127,2.3,2.3,43,0.00,CLR,,0.00,181.0,WeatherDisplay:10.37,2013-05-02 22:44:00,
2013-05-02 18:49:00,69.3,45.8,30.31,SE,132,2.3,2.3,43,0.00,CLR,,0.00,165.0,WeatherDisplay:10.37,2013-05-02 22:49:00,
2013-05-02 18:54:00,69.0,46.2,30.31,ESE,117,3.0,3.0,44,0.00,CLR,,0.00,151.0,WeatherDisplay:10.37,2013-05-02 22:54:00,
2013-05-02 18:59:00,68.6,45.8,30.31,ESE,123,2.3,2.3,44,0.00,CLR,,0.00,35.0,WeatherDisplay:10.37,2013-05-02 22:59:00,
2013-05-02 19:04:00,68.2,44.8,30.31,SE,141,1.2,1.2,43,0.00,CLR,,0.00,33.0,WeatherDisplay:10.37,2013-05-02 23:04:00,
2013-05-02 19:09:00,68.0,44.7,30.31,SE,141,2.3,2.3,43,0.00,CLR,,0.00,30.0,WeatherDisplay:10.37,2013-05-02 23:09:00,
2013-05-02 19:14:00,67.8,43.9,30.31,SE,129,2.3,2.3,42,0.00,CLR,,0.00,28.0,WeatherDisplay:10.37,2013-05-02 23:14:00,
2013-05-02 19:19:00,67.6,44.9,30.31,SE,138,3.5,3.5,44,0.00,CLR,,0.00,25.0,WeatherDisplay:10.37,2013-05-02 23:19:00,
2013-05-02 19:24:00,67.4,45.9,30.31,SE,138,2.3,2.3,46,0.00,CLR,,0.00,23.0,WeatherDisplay:10.37,2013-05-02 23:24:00,
2013-05-02 19:29:00,67.0,46.1,30.31,SE,138,1.2,0.0,47,0.00,CLR,,0.00,21.0,WeatherDisplay:10.37,2013-05-02 23:29:00,
2013-05-02 19:34:00,66.5,45.6,30.31,SE,138,1.2,1.2,47,0.00,CLR,,0.00,18.0,WeatherDisplay:10.37,2013-05-02 23:34:00,
2013-05-02 19:39:00,65.8,45.0,30.31,SE,138,0.0,0.0,47,0.00,CLR,,0.00,14.0,WeatherDisplay:10.37,2013-05-02 23:39:00,
2013-05-02 19:44:00,65.2,45.0,30.31,SE,138,0.0,0.0,48,0.00,CLR,,0.00,12.0,WeatherDisplay:10.37,2013-05-02 23:44:00,
2013-05-02 19:49:00,64.6,45.0,30.31,SE,138,0.0,0.0,49,0.00,CLR,,0.00,9.0,WeatherDisplay:10.37,2013-05-02 23:49:00,
2013-05-02 19:54:00,64.2,45.2,30.31,SE,138,0.0,0.0,50,0.00,CLR,,0.00,5.0,WeatherDisplay:10.37,2013-05-02 23:54:00,
2013-05-02 19:59:00,63.8,44.8,30.31,SE,138,0.0,0.0,50,0.00,CLR,,0.00,0.0,WeatherDisplay:10.37,2013-05-02 23:59:00,
2013-05-02 20:04:00,63.6,45.1,30.31,SE,138,0.0,0.0,51,0.00,CLR,,0.00,0.0,WeatherDisplay:10.37,2013-05-03 00:04:00,
2013-05-02 20:09:00,63.2,44.8,30.31,SE,138,0.0,0.0,51,0.00,CLR,,0.00,0.0,WeatherDisplay:10.37,2013-05-03 00:09:00,
2013-05-02 20:14:00,62.9,45.0,30.31,SE,138,0.0,0.0,52,0.00,CLR,,0.00,0.0,WeatherDisplay:10.37,2013-05-03 00:14:00,
2013-05-02 20:19:00,62.6,44.2,30.31,SE,138,0.0,0.0,51,0.00,CLR,,0.00,0.0,WeatherDisplay:10.37,2013-05-03 00:19:00,
2013-05-02 20:24:00,62.4,44.0,30.31,SE,138,0.0,0.0,51,0.00,CLR,,0.00,0.0,WeatherDisplay:10.37,2013-05-03 00:24:00,
2013-05-02 20:29:00,62.3,43.9,30.31,SE,138,0.0,0.0,51,0.00,CLR,,0.00,0.0,WeatherDisplay:10.37,2013-05-03 00:29:00,
2013-05-02 20:34:00,62.3,43.4,30.31,SE,138,0.0,0.0,50,0.00,CLR,,0.00,0.0,WeatherDisplay:10.37,2013-05-03 00:34:00,
2013-05-02 20:39:00,62.4,44.5,30.31,SE,138,0.0,0.0,52,0.00,CLR,,0.00,0.0,WeatherDisplay:10.37,2013-05-03 00:39:00,
2013-05-02 20:44:00,62.5,45.6,30.31,SE,138,0.0,0.0,54,0.00,CLR,,0.00,0.0,WeatherDisplay:10.37,2013-05-03 00:44:00,
2013-05-02 20:49:00,62.3,45.4,30.31,SE,138,0.0,0.0,54,0.00,CLR,,0.00,0.0,WeatherDisplay:10.37,2013-05-03 00:49:00,
2013-05-02 20:54:00,62.0,46.1,30.31,SE,138,0.0,0.0,56,0.00,CLR,,0.00,0.0,WeatherDisplay:10.37,2013-05-03 00:54:00,
2013-05-02 20:59:00,61.6,46.7,30.31,SE,138,0.0,0.0,58,0.00,CLR,,0.00,0.0,WeatherDisplay:10.37,2013-05-03 00:59:00,
2013-05-02 21:04:00,61.2,46.3,30.31,SE,138,0.0,0.0,58,0.00,CLR,,0.00,0.0,WeatherDisplay:10.37,2013-05-03 01:04:00,
2013-05-02 21:09:00,60.8,45.5,30.31,SE,138,0.0,0.0,57,0.00,CLR,,0.00,0.0,WeatherDisplay:10.37,2013-05-03 01:09:00,
2013-05-02 21:14:00,60.5,44.7,30.31,SE,138,0.0,0.0,56,0.00,CLR,,0.00,0.0,WeatherDisplay:10.37,2013-05-03 01:14:00,
2013-05-02 21:19:00,60.1,44.3,30.31,SE,138,0.0,0.0,56,0.00,CLR,,0.00,0.0,WeatherDisplay:10.37,2013-05-03 01:19:00,
2013-05-02 21:24:00,59.8,44.1,30.31,SE,138,0.0,0.0,56,0.00,CLR,,0.00,0.0,WeatherDisplay:10.37,2013-05-03 01:24:00,
2013-05-02 21:29:00,59.5,43.8,30.30,SE,138,0.0,0.0,56,0.00,CLR,,0.00,0.0,WeatherDisplay:10.37,2013-05-03 01:29:00,
2013-05-02 21:34:00,59.1,43.9,30.30,SE,138,0.0,0.0,57,0.00,CLR,,0.00,0.0,WeatherDisplay:10.37,2013-05-03 01:34:00,
2013-05-02 21:39:00,58.6,43.4,30.30,SE,138,0.0,0.0,57,0.00,CLR,,0.00,0.0,WeatherDisplay:10.37,2013-05-03 01:39:00,
2013-05-02 21:44:00,58.3,43.6,30.30,SE,138,0.0,0.0,58,0.00,CLR,,0.00,0.0,WeatherDisplay:10.37,2013-05-03 01:44:00,
2013-05-02 21:49:00,58.1,43.4,30.30,SE,138,0.0,0.0,58,0.00,CLR,,0.00,0.0,WeatherDisplay:10.37,2013-05-03 01:49:00,
2013-05-02 21:54:00,57.8,43.6,30.30,SE,138,0.0,0.0,59,0.00,CLR,,0.00,0.0,WeatherDisplay:10.37,2013-05-03 01:54:00,
2013-05-02 21:59:00,57.5,43.7,30.30,SE,138,0.0,0.0,60,0.00,CLR,,0.00,0.0,WeatherDisplay:10.37,2013-05-03 01:59:00,
2013-05-02 22:04:00,57.3,43.1,30.30,SE,138,0.0,0.0,59,0.00,CLR,,0.00,0.0,WeatherDisplay:10.37,2013-05-03 02:04:00,
2013-05-02 22:09:00,57.5,43.3,30.30,SE,138,0.0,0.0,59,0.00,CLR,,0.00,0.0,WeatherDisplay:10.37,2013-05-03 02:09:00,
2013-05-02 22:14:00,57.8,43.6,30.30,SE,138,1.2,1.2,59,0.00,CLR,,0.00,0.0,WeatherDisplay:10.37,2013-05-03 02:14:00,
2013-05-02 22:19:00,57.9,43.7,30.31,SE,138,0.0,0.0,59,0.00,CLR,,0.00,0.0,WeatherDisplay:10.37,2013-05-03 02:19:00,
2013-05-02 22:24:00,57.8,43.1,30.30,SE,138,1.2,1.2,58,0.00,CLR,,0.00,0.0,WeatherDisplay:10.37,2013-05-03 02:24:00,
2013-05-02 22:29:00,57.5,42.8,30.30,SE,138,1.2,1.2,58,0.00,CLR,,0.00,0.0,WeatherDisplay:10.37,2013-05-03 02:29:00,
2013-05-02 22:34:00,57.3,42.6,30.30,SE,138,1.2,1.2,58,0.00,CLR,,0.00,0.0,WeatherDisplay:10.37,2013-05-03 02:34:00,
2013-05-02 22:39:00,57.5,42.8,30.30,SE,138,1.2,0.0,58,0.00,CLR,,0.00,0.0,WeatherDisplay:10.37,2013-05-03 02:39:00,
2013-05-02 22:44:00,58.0,42.4,30.30,SE,138,0.0,0.0,56,0.00,CLR,,0.00,0.0,WeatherDisplay:10.37,2013-05-03 02:44:00,
2013-05-02 22:49:00,58.1,42.9,30.30,SE,138,1.2,1.2,57,0.00,CLR,,0.00,0.0,WeatherDisplay:10.37,2013-05-03 02:49:00,
2013-05-02 22:54:00,58.0,42.8,30.30,SE,138,0.0,0.0,57,0.00,CLR,,0.00,0.0,WeatherDisplay:10.37,2013-05-03 02:54:00,
2013-05-02 22:59:00,57.8,43.6,30.30,SE,138,1.2,0.0,59,0.00,CLR,,0.00,0.0,WeatherDisplay:10.37,2013-05-03 02:59:00,
2013-05-02 23:04:00,57.5,43.7,30.30,SE,138,0.0,0.1,60,0.00,CLR,,0.00,0.0,WeatherDisplay:10.37,2013-05-03 03:04:00,
2013-05-02 23:09:00,57.4,44.1,30.30,SE,138,0.0,0.0,61,0.00,CLR,,0.00,0.0,WeatherDisplay:10.37,2013-05-03 03:09:00,
2013-05-02 23:14:00,57.2,44.3,30.30,SE,138,1.0,0.0,62,0.00,CLR,,0.00,0.0,WeatherDisplay:10.37,2013-05-03 03:14:00,
2013-05-02 23:19:00,56.8,43.9,30.30,SE,138,1.2,1.2,62,0.00,CLR,,0.00,0.0,WeatherDisplay:10.37,2013-05-03 03:19:00,
2013-05-02 23:24:00,56.6,44.1,30.29,SE,138,1.2,1.2,63,0.00,CLR,,0.00,0.0,WeatherDisplay:10.37,2013-05-03 03:24:00,
2013-05-02 23:29:00,56.6,44.1,30.30,SE,138,2.0,2.0,63,0.00,CLR,,0.00,0.0,WeatherDisplay:10.37,2013-05-03 03:29:00,
2013-05-02 23:34:00,56.5,44.5,30.30,SE,138,1.2,1.2,64,0.00,CLR,,0.00,0.0,WeatherDisplay:10.37,2013-05-03 03:34:00,
2013-05-02 23:39:00,56.3,44.7,30.30,SE,138,1.2,1.2,65,0.00,CLR,,0.00,0.0,WeatherDisplay:10.37,2013-05-03 03:39:00,
2013-05-02 23:44:00,56.0,44.8,30.30,SE,138,0.0,0.0,66,0.00,CLR,,0.00,0.0,WeatherDisplay:10.37,2013-05-03 03:44:00,
2013-05-02 23:49:00,55.8,44.6,30.30,SE,138,1.2,0.0,66,0.00,CLR,,0.00,0.0,WeatherDisplay:10.37,2013-05-03 03:49:00,
2013-05-02 23:54:00,55.5,44.7,30.30,SE,138,0.0,0.0,67,0.00,CLR,,0.00,0.0,WeatherDisplay:10.37,2013-05-03 03:54:00,
2013-05-02 23:59:00,55.2,44.8,30.30,SE,138,1.2,1.2,68,0.00,CLR,,0.00,0.0,WeatherDisplay:10.37,2013-05-03 03:59:00,